Time;durP1;ratioP1;P1;durP2;ratioP2;P2;SDS_P1;SDS_P2;PMS_P1;PMS_P2;Temp;Humidity;BMP_temperature;BMP_pressure;BME280_temperature;BME280_humidity;BME280_pressure;Samples;Min_cycle;Max_cycle;Signal;HPM_P1;HPM_P2
2021/03/06 00:00:26;;;;;;;3.43;3.00;;;1.70;93.10;;;;;;5075605;28;20403;-73
2021/03/06 00:02:52;;;;;;;5.85;4.88;;;1.50;93.70;;;;;;5076146;28;20215;-75
2021/03/06 00:05:20;;;;;;;10.70;3.70;;;1.50;93.90;;;;;;5075783;28;20181;-72
2021/03/06 00:07:46;;;;;;;6.13;4.95;;;1.50;94.40;;;;;;5075687;28;20201;-76
2021/03/06 00:10:13;;;;;;;5.78;4.53;;;1.60;94.70;;;;;;5075441;28;20202;-74
2021/03/06 00:12:43;;;;;;;6.13;4.65;;;1.80;93.80;;;;;;5075523;28;20246;-74
2021/03/06 00:15:12;;;;;;;6.75;4.50;;;1.60;93.50;;;;;;5075426;28;20174;-73
2021/03/06 00:17:38;;;;;;;6.50;3.80;;;1.30;94.40;;;;;;5075487;28;20198;-77
2021/03/06 00:20:06;;;;;;;12.55;5.10;;;1.30;94.80;;;;;;5075258;28;20204;-75
2021/03/06 00:22:32;;;;;;;7.47;5.45;;;1.30;95.40;;;;;;5075535;28;20174;-73
2021/03/06 00:24:58;;;;;;;6.60;4.68;;;1.30;94.80;;;;;;5075252;28;20181;-76
2021/03/06 00:27:24;;;;;;;7.90;5.10;;;1.50;94.70;;;;;;5075332;28;20254;-76
2021/03/06 00:29:50;;;;;;;6.47;4.65;;;1.40;94.90;;;;;;5075168;28;20173;-72
2021/03/06 00:32:15;;;;;;;12.87;4.63;;;1.40;94.50;;;;;;5074690;28;20182;-74
2021/03/06 00:34:41;;;;;;;4.30;3.93;;;1.30;94.40;;;;;;5075325;28;20166;-74
2021/03/06 00:37:07;;;;;;;7.27;5.07;;;1.30;94.60;;;;;;5075131;28;20166;-76
2021/03/06 00:39:33;;;;;;;13.80;4.63;;;1.10;95.30;;;;;;5074680;28;20435;-74
2021/03/06 00:41:58;;;;;;;4.43;3.83;;;1.00;95.60;;;;;;5075029;28;20200;-73
2021/03/06 00:44:24;;;;;;;8.87;5.27;;;1.10;95.80;;;;;;5073818;28;20227;-77
2021/03/06 00:46:50;;;;;;;7.93;4.30;;;1.10;95.30;;;;;;5074909;28;20205;-73
2021/03/06 00:49:22;;;;;;;6.27;5.63;;;1.30;95.40;;;;;;5074608;28;20204;-73
2021/03/06 00:51:48;;;;;;;11.82;4.53;;;1.00;95.40;;;;;;5074727;28;20220;-76
2021/03/06 00:54:14;;;;;;;6.23;3.80;;;0.90;96.10;;;;;;5073554;28;20182;-73
2021/03/06 00:56:39;;;;;;;7.83;5.47;;;1.10;95.80;;;;;;5074757;28;20403;-77
2021/03/06 00:59:05;;;;;;;5.03;4.20;;;1.10;95.80;;;;;;5074377;28;20190;-74
2021/03/06 01:01:31;;;;;;;5.83;4.43;;;1.10;95.80;;;;;;5074786;28;20633;-71
2021/03/06 01:03:58;;;;;;;6.57;4.93;;;1.20;96.00;;;;;;5074642;28;20181;-76
2021/03/06 01:06:24;;;;;;;6.50;4.75;;;1.40;96.10;;;;;;5074550;28;20162;-74
2021/03/06 01:08:49;;;;;;;8.20;4.73;;;1.20;95.00;;;;;;5074203;28;20547;-74
2021/03/06 01:11:15;;;;;;;10.17;6.23;;;1.10;95.50;;;;;;5074545;28;20918;-76
2021/03/06 01:13:41;;;;;;;10.13;6.20;;;1.20;95.40;;;;;;5074335;28;20647;-75
2021/03/06 01:16:06;;;;;;;8.77;5.30;;;1.30;95.30;;;;;;5074261;28;20553;-72
2021/03/06 01:18:32;;;;;;;6.27;3.67;;;1.20;94.90;;;;;;5074051;28;20243;-74
2021/03/06 01:20:58;;;;;;;7.80;5.20;;;1.30;95.40;;;;;;5074163;28;20169;-74
2021/03/06 01:23:24;;;;;;;8.35;5.97;;;1.30;95.40;;;;;;5074348;28;20170;-74
2021/03/06 01:25:50;;;;;;;5.23;4.13;;;1.20;95.20;;;;;;5073955;28;20180;-74
2021/03/06 01:28:15;;;;;;;9.93;5.27;;;1.20;95.30;;;;;;5073954;28;20251;-77
2021/03/06 01:30:41;;;;;;;6.93;5.23;;;1.30;95.30;;;;;;5073994;28;20257;-74
2021/03/06 01:33:07;;;;;;;8.43;5.07;;;1.30;95.30;;;;;;5073864;28;20498;-71
2021/03/06 01:35:33;;;;;;;8.60;5.68;;;1.20;94.90;;;;;;5072834;28;20670;-74
2021/03/06 01:37:59;;;;;;;7.55;5.95;;;1.00;95.40;;;;;;5073826;28;20193;-74
2021/03/06 01:40:36;;;;;;;9.10;6.60;;;0.90;95.40;;;;;;5073850;28;20566;-72
2021/03/06 01:43:06;;;;;;;10.95;5.30;;;0.90;95.70;;;;;;5073440;28;20403;-77
2021/03/06 01:45:32;;;;;;;9.43;6.65;;;0.90;96.10;;;;;;5073706;28;20174;-73
2021/03/06 01:47:58;;;;;;;8.27;6.50;;;1.00;96.10;;;;;;5073641;28;20218;-72
2021/03/06 01:50:35;;;;;;;4.88;4.05;;;1.20;95.60;;;;;;5073525;28;20407;-73
2021/03/06 01:53:03;;;;;;;8.82;6.22;;;1.40;94.80;;;;;;5073918;28;20226;-71
2021/03/06 01:55:31;;;;;;;9.57;5.88;;;1.40;95.10;;;;;;5073733;28;20165;-75
2021/03/06 01:57:58;;;;;;;5.55;4.60;;;1.30;95.00;;;;;;5073735;28;20209;-75
2021/03/06 02:00:24;;;;;;;8.02;5.25;;;1.10;95.00;;;;;;5073609;28;20179;-76
2021/03/06 02:02:50;;;;;;;6.30;5.17;;;1.00;95.30;;;;;;5073515;28;20173;-73
2021/03/06 02:05:16;;;;;;;5.57;4.78;;;0.90;95.40;;;;;;5073687;28;20878;-76
2021/03/06 02:07:46;;;;;;;5.80;4.90;;;1.00;95.30;;;;;;5072306;28;20258;-74
2021/03/06 02:10:13;;;;;;;10.82;5.25;;;1.10;95.40;;;;;;5073333;28;20193;-75
2021/03/06 02:13:00;;;;;;;8.38;4.55;;;1.20;94.90;;;;;;5073682;28;20256;-75
2021/03/06 02:16:03;;;;;;;5.63;4.38;;;1.00;94.70;;;;;;5073374;28;20598;-74
2021/03/06 02:18:28;;;;;;;6.80;6.10;;;0.80;95.40;;;;;;5073139;28;20193;-74
2021/03/06 02:21:32;;;;;;;6.53;5.03;;;0.80;95.00;;;;;;5072059;28;20173;-76
2021/03/06 02:24:19;;;;;;;5.38;4.88;;;0.80;95.50;;;;;;5073232;28;20264;-76
2021/03/06 02:26:54;;;;;;;6.75;5.07;;;0.90;94.90;;;;;;5073290;28;20516;-77
2021/03/06 02:29:43;;;;;;;6.75;4.93;;;0.80;94.90;;;;;;5073031;28;20185;-73
2021/03/06 02:32:26;;;;;;;9.13;6.20;;;0.80;94.90;;;;;;5073779;28;20571;-76
2021/03/06 02:35:03;;;;;;;11.57;5.60;;;0.80;94.90;;;;;;5073238;28;20562;-73
2021/03/06 02:37:33;;;;;;;6.97;5.00;;;0.70;94.80;;;;;;5073323;28;20180;-74
2021/03/06 02:40:00;;;;;;;9.13;4.80;;;0.70;95.30;;;;;;5073080;28;20165;-75
2021/03/06 02:42:29;;;;;;;5.82;4.68;;;0.70;95.60;;;;;;5073165;28;20178;-74
2021/03/06 02:44:56;;;;;;;6.93;5.65;;;0.60;95.40;;;;;;5073126;28;20185;-72
2021/03/06 02:47:23;;;;;;;6.05;5.10;;;0.60;95.30;;;;;;5073089;28;20204;-76
2021/03/06 02:49:54;;;;;;;7.35;4.65;;;0.60;95.20;;;;;;5073110;28;20166;-77
2021/03/06 02:52:19;;;;;;;10.70;6.15;;;0.60;95.00;;;;;;5071767;28;20643;-76
2021/03/06 02:54:47;;;;;;;12.40;6.30;;;0.30;95.20;;;;;;5073695;28;20255;-73
2021/03/06 02:57:27;;;;;;;5.00;4.28;;;0.20;95.40;;;;;;5076724;28;20819;-73
2021/03/06 03:00:19;;;;;;;7.43;5.07;;;0.30;95.30;;;;;;5076772;28;20177;-74
2021/03/06 03:03:00;;;;;;;5.53;4.75;;;0.50;95.60;;;;;;5075618;28;20647;-78
2021/03/06 03:05:31;;;;;;;5.30;4.72;;;0.30;95.40;;;;;;5076749;28;20181;-74
2021/03/06 03:08:10;;;;;;;7.40;4.20;;;0.30;95.50;;;;;;5076356;28;20288;-74
2021/03/06 03:10:41;;;;;;;5.47;4.57;;;0.30;95.90;;;;;;5076518;28;20184;-72
2021/03/06 03:13:14;;;;;;;9.70;5.85;;;0.00;95.80;;;;;;5076763;28;20206;-75
2021/03/06 03:15:45;;;;;;;7.35;6.25;;;0.10;96.10;;;;;;5076365;28;20186;-72
2021/03/06 03:18:20;;;;;;;8.27;4.35;;;0.20;96.00;;;;;;5076575;28;20187;-75
2021/03/06 03:20:51;;;;;;;8.23;5.03;;;0.30;95.80;;;;;;5076603;28;20192;-74
2021/03/06 03:23:21;;;;;;;7.40;6.07;;;0.30;95.40;;;;;;5076680;28;20216;-74
2021/03/06 03:25:48;;;;;;;5.95;4.82;;;0.40;95.60;;;;;;5076689;28;20166;-74
2021/03/06 03:28:15;;;;;;;5.68;4.85;;;0.50;96.00;;;;;;5076092;28;20229;-72
2021/03/06 03:30:41;;;;;;;6.57;5.90;;;0.30;95.70;;;;;;5076284;28;20198;-75
2021/03/06 03:33:13;;;;;;;4.78;4.22;;;0.30;95.70;;;;;;5076236;28;20627;-75
2021/03/06 03:35:41;;;;;;;6.90;5.55;;;0.30;95.30;;;;;;5076521;28;20188;-76
2021/03/06 03:38:09;;;;;;;7.57;5.28;;;0.50;94.90;;;;;;5075001;28;20663;-72
2021/03/06 03:40:36;;;;;;;6.90;6.18;;;0.30;95.00;;;;;;5075984;28;20181;-75
2021/03/06 03:43:04;;;;;;;7.90;5.95;;;0.20;95.30;;;;;;5076301;28;20219;-72
2021/03/06 03:45:30;;;;;;;7.88;4.88;;;0.00;95.20;;;;;;5076168;28;20181;-75
2021/03/06 03:47:58;;;;;;;6.57;4.35;;;0.00;95.30;;;;;;5074696;28;20212;-75
2021/03/06 03:50:24;;;;;;;5.88;4.05;;;0.00;95.70;;;;;;5075956;28;20265;-72
2021/03/06 03:52:51;;;;;;;6.40;5.78;;;0.10;96.00;;;;;;5075969;28;20567;-74
2021/03/06 03:55:18;;;;;;;6.32;4.05;;;-0.10;96.00;;;;;;5075803;28;20546;-76
2021/03/06 03:57:48;;;;;;;9.20;5.55;;;0.00;96.60;;;;;;5075747;28;20272;-74
2021/03/06 04:00:17;;;;;;;6.80;4.35;;;-0.10;96.20;;;;;;5075757;28;20634;-74
2021/03/06 04:02:43;;;;;;;3.35;3.05;;;0.10;95.90;;;;;;5075818;28;20173;-73
2021/03/06 04:05:10;;;;;;;6.47;3.90;;;0.10;95.80;;;;;;5076018;28;20185;-76
2021/03/06 04:08:05;;;;;;;7.10;4.18;;;0.10;95.40;;;;;;5074811;28;20193;-73
2021/03/06 04:10:30;;;;;;;6.45;4.93;;;0.10;95.50;;;;;;5075178;28;20636;-74
2021/03/06 04:12:56;;;;;;;6.77;4.50;;;0.00;95.80;;;;;;5075761;28;20362;-74
2021/03/06 04:15:24;;;;;;;9.23;4.90;;;0.00;95.30;;;;;;5074196;28;20193;-75
2021/03/06 04:17:50;;;;;;;5.70;5.03;;;-0.30;95.60;;;;;;5076024;28;20575;-73
2021/03/06 04:20:19;;;;;;;5.63;3.83;;;-0.20;96.00;;;;;;5075243;28;20205;-75
2021/03/06 04:22:45;;;;;;;5.47;4.22;;;-0.20;95.00;;;;;;5075520;28;20192;-75
2021/03/06 04:25:11;;;;;;;3.22;3.03;;;-0.20;94.30;;;;;;5075501;28;20166;-74
2021/03/06 04:27:37;;;;;;;5.13;3.72;;;-0.30;94.00;;;;;;5075104;28;20209;-77
2021/03/06 04:30:06;;;;;;;5.53;3.08;;;-0.20;94.30;;;;;;5075227;28;20173;-75
2021/03/06 04:32:32;;;;;;;5.03;4.43;;;-0.20;94.10;;;;;;5075334;28;20173;-74
2021/03/06 04:34:57;;;;;;;4.83;3.80;;;-0.10;94.40;;;;;;5075228;28;20165;-75
2021/03/06 04:37:23;;;;;;;3.57;3.27;;;-0.10;94.10;;;;;;5075119;28;20407;-74
2021/03/06 04:39:48;;;;;;;7.73;6.20;;;-0.10;93.70;;;;;;5073736;28;20591;-74
2021/03/06 04:42:14;;;;;;;5.93;4.30;;;0.00;94.00;;;;;;5075468;28;20256;-76
2021/03/06 04:44:40;;;;;;;9.20;3.90;;;0.00;93.90;;;;;;5075008;28;20174;-74
2021/03/06 04:47:06;;;;;;;5.27;3.80;;;0.00;93.70;;;;;;5075012;28;20215;-75
2021/03/06 04:49:32;;;;;;;6.60;5.70;;;0.00;93.50;;;;;;5074490;28;20192;-76
2021/03/06 04:51:58;;;;;;;4.75;3.83;;;-0.10;93.40;;;;;;5074823;28;20247;-75
2021/03/06 04:54:23;;;;;;;5.30;4.80;;;-0.10;93.10;;;;;;5074840;28;20198;-77
2021/03/06 04:56:50;;;;;;;6.73;5.90;;;-0.10;93.00;;;;;;5074799;28;20907;-76
2021/03/06 04:59:17;;;;;;;7.55;4.05;;;-0.10;92.90;;;;;;5074413;28;20609;-75
2021/03/06 05:01:42;;;;;;;4.28;3.72;;;-0.10;92.80;;;;;;5074524;28;20161;-75
2021/03/06 05:04:08;;;;;;;4.70;4.00;;;-0.10;92.70;;;;;;5074975;28;20290;-76
2021/03/06 05:06:34;;;;;;;5.13;4.63;;;0.00;93.30;;;;;;5074543;28;20176;-71
2021/03/06 05:08:59;;;;;;;4.17;3.70;;;-0.10;92.90;;;;;;5074337;28;20201;-73
2021/03/06 05:11:25;;;;;;;3.20;2.90;;;-0.10;93.20;;;;;;5074374;28;20166;-74
2021/03/06 05:13:51;;;;;;;5.93;4.30;;;0.00;92.80;;;;;;5074367;28;20212;-73
2021/03/06 05:16:16;;;;;;;4.30;3.40;;;-0.10;92.10;;;;;;5074132;28;20510;-75
2021/03/06 05:18:42;;;;;;;6.97;4.23;;;0.10;92.90;;;;;;5073992;28;20280;-76
2021/03/06 05:21:08;;;;;;;4.55;3.88;;;0.10;92.70;;;;;;5074229;28;20180;-73
2021/03/06 05:23:34;;;;;;;5.90;3.93;;;0.00;92.40;;;;;;5074273;28;20173;-73
2021/03/06 05:25:59;;;;;;;3.60;2.90;;;-0.20;91.60;;;;;;5074169;28;20169;-76
2021/03/06 05:28:25;;;;;;;5.57;3.33;;;-0.20;91.00;;;;;;5073839;28;20216;-73
2021/03/06 05:30:51;;;;;;;3.13;2.83;;;-0.10;91.70;;;;;;5074318;28;20166;-76
2021/03/06 05:33:17;;;;;;;7.40;3.87;;;-0.30;91.00;;;;;;5074038;28;20170;-75
2021/03/06 05:35:43;;;;;;;3.90;2.85;;;-0.20;91.30;;;;;;5073872;28;20396;-74
2021/03/06 05:38:10;;;;;;;4.40;4.00;;;-0.10;91.60;;;;;;5074216;28;20216;-75
2021/03/06 05:40:43;;;;;;;4.32;2.97;;;-0.20;91.20;;;;;;5073544;28;20521;-74
2021/03/06 05:43:08;;;;;;;5.70;3.22;;;-0.10;90.80;;;;;;5074046;28;20651;-74
2021/03/06 05:45:35;;;;;;;7.13;3.50;;;-0.10;90.40;;;;;;5072547;28;20196;-71
2021/03/06 05:48:01;;;;;;;6.05;3.30;;;-0.10;90.20;;;;;;5073590;28;21030;-73
2021/03/06 05:50:28;;;;;;;4.30;3.83;;;-0.10;90.20;;;;;;5073578;28;20624;-74
2021/03/06 05:52:56;;;;;;;1.80;1.60;;;0.00;90.00;;;;;;5073804;28;20538;-76
2021/03/06 05:55:25;;;;;;;3.25;2.95;;;0.10;89.80;;;;;;5073687;28;20212;-73
2021/03/06 05:57:53;;;;;;;2.88;2.58;;;0.00;89.10;;;;;;5073720;28;20194;-74
2021/03/06 06:00:20;;;;;;;1.88;1.75;;;-0.10;89.00;;;;;;5073349;28;20169;-73
2021/03/06 06:02:46;;;;;;;2.30;2.10;;;-0.10;89.50;;;;;;5073577;28;20197;-76
2021/03/06 06:05:12;;;;;;;3.47;2.90;;;-0.10;90.10;;;;;;5073617;28;20197;-77
2021/03/06 06:07:39;;;;;;;4.17;2.87;;;0.00;90.60;;;;;;5073458;28;20694;-73
2021/03/06 06:10:06;;;;;;;2.42;1.65;;;0.00;90.30;;;;;;5073332;28;20510;-72
2021/03/06 06:12:32;;;;;;;3.65;2.83;;;0.10;90.20;;;;;;5073608;28;20248;-75
2021/03/06 06:14:58;;;;;;;3.47;2.67;;;0.30;88.10;;;;;;5073400;28;20280;-74
2021/03/06 06:17:24;;;;;;;3.73;2.17;;;0.40;88.30;;;;;;5072027;28;20408;-76
2021/03/06 06:19:50;;;;;;;3.45;3.15;;;0.30;87.60;;;;;;5073283;28;20176;-74
2021/03/06 06:22:23;;;;;;;6.50;2.85;;;0.40;88.70;;;;;;5073358;28;20180;-76
2021/03/06 06:24:50;;;;;;;3.15;2.80;;;0.50;88.90;;;;;;5073448;28;20174;-75
2021/03/06 06:27:21;;;;;;;3.05;2.75;;;0.50;88.40;;;;;;5072928;28;20209;-74
2021/03/06 06:29:46;;;;;;;2.92;2.67;;;0.50;89.90;;;;;;5072623;28;20215;-72
2021/03/06 06:32:14;;;;;;;3.43;2.97;;;0.60;89.80;;;;;;5073378;28;20170;-75
2021/03/06 06:34:42;;;;;;;2.33;2.10;;;0.80;88.50;;;;;;5073074;28;20513;-74
2021/03/06 06:37:13;;;;;;;3.03;2.38;;;0.70;90.00;;;;;;5073134;28;20631;-76
2021/03/06 06:39:40;;;;;;;3.83;2.92;;;0.60;90.40;;;;;;5072787;28;20204;-73
2021/03/06 06:42:07;;;;;;;3.50;2.45;;;0.50;89.90;;;;;;5073265;28;20200;-73
2021/03/06 06:44:33;;;;;;;6.13;4.28;;;0.40;90.10;;;;;;5073251;28;20189;-77
2021/03/06 06:47:13;;;;;;;5.63;2.70;;;0.40;90.20;;;;;;5073023;28;20224;-72
2021/03/06 06:49:53;;;;;;;2.65;2.45;;;0.50;88.80;;;;;;5072832;28;20611;-76
2021/03/06 06:52:21;;;;;;;3.35;3.05;;;0.50;88.40;;;;;;5073064;28;20165;-75
2021/03/06 06:54:55;;;;;;;5.68;2.55;;;0.50;87.40;;;;;;5073052;28;20567;-77
2021/03/06 06:57:21;;;;;;;3.50;2.63;;;0.60;87.30;;;;;;5072973;28;20184;-72
2021/03/06 07:00:09;;;;;;;2.75;1.80;;;0.70;85.70;;;;;;5072848;28;20594;-76
2021/03/06 07:02:35;;;;;;;2.88;2.33;;;0.80;86.30;;;;;;5073096;28;20173;-75
2021/03/06 07:05:05;;;;;;;5.03;3.60;;;0.80;86.00;;;;;;5073117;28;20219;-73
2021/03/06 07:07:41;;;;;;;3.30;2.83;;;0.90;84.80;;;;;;5072657;28;20447;-75
2021/03/06 07:10:08;;;;;;;3.25;2.45;;;1.00;84.60;;;;;;5072894;28;20170;-74
2021/03/06 07:12:39;;;;;;;3.05;2.65;;;1.10;85.20;;;;;;5071781;28;20174;-75
2021/03/06 07:15:25;;;;;;;2.85;2.35;;;1.20;84.20;;;;;;5072771;28;20177;-74
2021/03/06 07:17:53;;;;;;;6.75;3.28;;;1.30;83.70;;;;;;5072706;28;20189;-73
2021/03/06 07:20:21;;;;;;;7.75;3.20;;;2.20;82.70;;;;;;5072558;28;20266;-73
2021/03/06 07:23:10;;;;;;;2.78;2.42;;;4.10;77.40;;;;;;5072900;28;20248;-75
2021/03/06 07:25:35;;;;;;;3.33;2.65;;;6.40;65.60;;;;;;5072854;28;20205;-73
2021/03/06 07:28:01;;;;;;;2.90;2.70;;;7.70;58.00;;;;;;5072587;28;20236;-74
2021/03/06 07:30:27;;;;;;;2.73;2.47;;;9.30;52.60;;;;;;5072465;28;20411;-75
2021/03/06 07:32:57;;;;;;;3.07;2.77;;;10.10;47.00;;;;;;5072889;28;20249;-76
2021/03/06 07:35:24;;;;;;;3.03;2.75;;;10.10;44.30;;;;;;5072795;28;20161;-74
2021/03/06 07:37:56;;;;;;;3.22;2.33;;;10.20;45.00;;;;;;5072514;28;20323;-76
2021/03/06 07:40:32;;;;;;;3.00;2.70;;;11.10;42.90;;;;;;5072460;28;20639;-75
2021/03/06 07:43:01;;;;;;;5.47;2.63;;;11.60;41.90;;;;;;5075447;28;20180;-78
2021/03/06 07:45:29;;;;;;;4.35;3.45;;;11.50;41.30;;;;;;5076106;28;20178;-75
2021/03/06 07:48:03;;;;;;;3.55;3.10;;;11.00;41.20;;;;;;5075973;28;20302;-78
2021/03/06 07:50:30;;;;;;;4.47;3.28;;;10.30;41.20;;;;;;5076077;28;20634;-73
2021/03/06 07:52:57;;;;;;;4.43;2.80;;;10.00;42.70;;;;;;5075994;28;20185;-77
2021/03/06 07:55:26;;;;;;;4.00;2.67;;;11.30;42.60;;;;;;5075947;28;20174;-73
2021/03/06 07:58:07;;;;;;;3.70;2.75;;;12.60;39.80;;;;;;5075759;28;20440;-74
2021/03/06 08:00:40;;;;;;;3.87;3.17;;;12.20;40.00;;;;;;5074664;28;20181;-73
2021/03/06 08:03:27;;;;;;;3.77;3.10;;;13.20;39.50;;;;;;5075762;28;20404;-74
2021/03/06 08:06:17;;;;;;;4.57;3.83;;;14.00;37.30;;;;;;5075844;28;20429;-76
2021/03/06 08:08:43;;;;;;;6.30;3.53;;;14.40;36.20;;;;;;5074934;28;20493;-76
2021/03/06 08:11:25;;;;;;;2.90;2.60;;;14.70;35.80;;;;;;5075739;28;20408;-74
2021/03/06 08:13:52;;;;;;;4.73;3.53;;;14.70;34.50;;;;;;5075607;28;20169;-77
2021/03/06 08:16:21;;;;;;;3.30;3.00;;;14.80;36.40;;;;;;5075494;28;20531;-73
2021/03/06 08:18:52;;;;;;;3.63;3.07;;;14.70;34.70;;;;;;5075294;28;20434;-76
2021/03/06 08:21:40;;;;;;;3.43;3.13;;;15.20;34.30;;;;;;5075782;28;20401;-75
2021/03/06 08:26:43;;;;;;;4.17;3.77;;;16.60;32.40;;;;;;5075382;28;20429;-72
2021/03/06 08:29:24;;;;;;;3.43;3.10;;;17.30;30.40;;;;;;5075040;28;20922;-75
2021/03/06 08:32:04;;;;;;;3.83;3.43;;;18.10;30.70;;;;;;5075424;28;20404;-76
2021/03/06 08:34:35;;;;;;;3.60;3.30;;;19.10;29.50;;;;;;5075066;28;20396;-75
2021/03/06 08:37:25;;;;;;;3.30;3.00;;;19.30;29.30;;;;;;5075196;28;20490;-76
2021/03/06 08:40:06;;;;;;;4.93;3.60;;;19.00;28.00;;;;;;5075112;28;20487;-74
2021/03/06 08:42:45;;;;;;;3.73;3.30;;;17.40;28.30;;;;;;5075183;28;20407;-77
2021/03/06 08:45:11;;;;;;;3.67;3.17;;;16.40;29.20;;;;;;5075111;28;20397;-77
2021/03/06 08:47:51;;;;;;;3.30;2.90;;;16.10;29.50;;;;;;5074884;28;20456;-74
2021/03/06 08:50:19;;;;;;;4.40;4.00;;;15.70;30.60;;;;;;5074923;28;20395;-74
2021/03/06 08:52:58;;;;;;;3.90;3.43;;;16.70;29.90;;;;;;5074409;28;20395;-74
2021/03/06 08:55:27;;;;;;;3.33;3.03;;;16.70;29.50;;;;;;5074740;28;20405;-73
2021/03/06 08:57:53;;;;;;;4.10;2.70;;;15.40;29.80;;;;;;5074906;28;20431;-74
2021/03/06 09:00:29;;;;;;;4.33;3.87;;;14.60;31.80;;;;;;5074567;28;20411;-79
2021/03/06 09:02:56;;;;;;;3.87;3.47;;;14.40;32.40;;;;;;5074870;28;20537;-77
2021/03/06 09:05:24;;;;;;;3.97;3.10;;;12.70;33.70;;;;;;5074555;28;20411;-74
2021/03/06 09:07:52;;;;;;;4.10;3.70;;;11.10;34.50;;;;;;5074215;28;20479;-75
2021/03/06 09:10:22;;;;;;;4.00;3.15;;;11.60;36.00;;;;;;5074442;28;20414;-74
2021/03/06 09:12:50;;;;;;;3.08;2.47;;;10.90;37.00;;;;;;5074555;28;20199;-73
2021/03/06 09:15:42;;;;;;;2.97;2.78;;;10.60;39.30;;;;;;5074585;28;20198;-73
2021/03/06 09:18:17;;;;;;;4.53;3.78;;;9.90;39.70;;;;;;5074110;28;20212;-76
2021/03/06 09:20:46;;;;;;;3.50;2.30;;;10.10;37.50;;;;;;5073998;28;20197;-76
2021/03/06 09:23:23;;;;;;;4.90;3.10;;;11.40;38.40;;;;;;5074169;28;20215;-74
2021/03/06 09:25:48;;;;;;;4.60;3.60;;;13.10;36.30;;;;;;5074411;28;20396;-75
2021/03/06 09:28:14;;;;;;;4.57;3.67;;;13.70;33.90;;;;;;5074074;28;20555;-75
2021/03/06 09:30:41;;;;;;;4.90;3.87;;;14.10;32.80;;;;;;5074097;28;20211;-77
2021/03/06 09:33:30;;;;;;;5.37;3.37;;;15.10;33.20;;;;;;5073955;28;20170;-76
2021/03/06 09:36:17;;;;;;;4.40;3.13;;;15.80;32.50;;;;;;5073889;28;20890;-75
2021/03/06 09:38:48;;;;;;;3.93;3.50;;;16.20;31.80;;;;;;5073808;28;20418;-75
2021/03/06 09:41:16;;;;;;;3.20;2.87;;;17.10;30.10;;;;;;5074433;28;20404;-73
2021/03/06 09:43:44;;;;;;;3.90;3.60;;;17.50;29.40;;;;;;5073764;28;20396;-74
2021/03/06 09:46:16;;;;;;;5.17;4.67;;;17.60;29.10;;;;;;5073905;28;20488;-75
2021/03/06 09:48:49;;;;;;;4.90;4.07;;;17.20;29.50;;;;;;5073702;28;20483;-75
2021/03/06 09:51:15;;;;;;;5.63;3.83;;;16.00;29.80;;;;;;5073965;28;20396;-72
2021/03/06 09:53:41;;;;;;;5.00;3.90;;;14.80;31.50;;;;;;5072421;28;20786;-72
2021/03/06 09:56:10;;;;;;;5.30;3.57;;;14.60;32.10;;;;;;5073688;28;20170;-73
2021/03/06 09:58:38;;;;;;;4.03;3.60;;;15.50;31.90;;;;;;5073566;28;20217;-76
2021/03/06 10:01:14;;;;;;;5.30;4.80;;;16.00;30.60;;;;;;5073871;28;20399;-76
2021/03/06 10:03:40;;;;;;;4.03;3.60;;;16.20;29.80;;;;;;5073597;28;20503;-75
2021/03/06 10:06:07;;;;;;;5.33;4.83;;;15.30;30.00;;;;;;5073140;28;20438;-75
2021/03/06 10:08:44;;;;;;;4.67;4.10;;;14.60;30.30;;;;;;5073206;28;20209;-75
2021/03/06 10:11:12;;;;;;;5.30;3.50;;;13.60;31.60;;;;;;5073635;28;20403;-74
2021/03/06 10:13:38;;;;;;;3.43;3.10;;;13.60;32.90;;;;;;5073700;28;20415;-72
2021/03/06 10:16:04;;;;;;;4.70;3.93;;;13.80;32.10;;;;;;5073313;28;20427;-77
2021/03/06 10:18:36;;;;;;;5.20;4.40;;;13.80;32.40;;;;;;5073116;28;20193;-74
2021/03/06 10:21:09;;;;;;;4.73;4.30;;;13.00;33.40;;;;;;5073685;28;20402;-75
2021/03/06 10:23:35;;;;;;;5.07;3.80;;;13.10;35.70;;;;;;5073572;28;20822;-73
2021/03/06 10:26:24;;;;;;;4.00;3.43;;;12.70;33.40;;;;;;5073350;28;20404;-74
2021/03/06 10:28:55;;;;;;;3.92;3.45;;;12.40;34.40;;;;;;5073047;28;20201;-76
2021/03/06 10:31:30;;;;;;;5.10;4.30;;;12.90;33.80;;;;;;5073559;28;20192;-77
2021/03/06 10:33:58;;;;;;;5.33;4.40;;;13.30;32.80;;;;;;5073297;28;20804;-73
2021/03/06 10:36:24;;;;;;;4.18;3.85;;;13.30;34.40;;;;;;5073324;28;20487;-74
2021/03/06 10:38:51;;;;;;;5.20;3.60;;;12.30;35.20;;;;;;5072968;28;20826;-73
2021/03/06 10:41:19;;;;;;;5.00;4.00;;;12.50;35.20;;;;;;5073355;28;20446;-73
2021/03/06 10:43:53;;;;;;;5.30;3.97;;;12.40;33.50;;;;;;5073080;28;20400;-78
2021/03/06 10:46:27;;;;;;;4.97;4.13;;;11.80;34.30;;;;;;5073180;28;20169;-77
2021/03/06 10:49:07;;;;;;;4.28;3.53;;;11.40;34.10;;;;;;5073033;28;20205;-76
2021/03/06 10:51:50;;;;;;;4.70;3.22;;;11.00;36.60;;;;;;5073318;28;20517;-74
2021/03/06 10:54:18;;;;;;;6.20;3.28;;;10.90;34.90;;;;;;5073765;28;20169;-76
2021/03/06 10:56:44;;;;;;;3.38;2.80;;;10.70;36.30;;;;;;5073127;28;20192;-72
2021/03/06 10:59:10;;;;;;;5.30;4.33;;;11.30;36.80;;;;;;5072869;28;20193;-76
2021/03/06 11:01:50;;;;;;;6.50;3.90;;;11.40;36.70;;;;;;5073054;28;20436;-73
2021/03/06 11:04:33;;;;;;;3.53;3.22;;;10.80;34.50;;;;;;5073396;28;20412;-73
2021/03/06 11:07:07;;;;;;;5.20;3.90;;;10.40;34.20;;;;;;5072807;28;20165;-78
2021/03/06 11:09:36;;;;;;;3.92;2.35;;;10.20;34.80;;;;;;5072792;28;20204;-73
2021/03/06 11:12:20;;;;;;;4.20;3.80;;;9.80;36.60;;;;;;5073035;28;20173;-74
2021/03/06 11:14:46;;;;;;;3.63;2.40;;;9.90;37.80;;;;;;5072973;28;20164;-73
2021/03/06 11:17:15;;;;;;;4.57;3.22;;;9.80;38.20;;;;;;5075998;28;20568;-76
2021/03/06 11:19:42;;;;;;;9.13;4.85;;;9.30;39.20;;;;;;5076327;28;20189;-74
2021/03/06 11:22:09;;;;;;;3.10;2.40;;;8.80;40.70;;;;;;5076641;28;20195;-74
2021/03/06 11:24:35;;;;;;;2.85;2.60;;;8.60;38.80;;;;;;5076507;28;20538;-77
2021/03/06 11:27:01;;;;;;;5.18;3.38;;;8.80;41.30;;;;;;5076501;28;20184;-74
2021/03/06 11:29:28;;;;;;;3.37;3.00;;;8.80;39.90;;;;;;5076277;28;20193;-72
2021/03/06 11:31:54;;;;;;;4.22;3.25;;;8.30;40.10;;;;;;5076394;28;20182;-73
2021/03/06 11:34:23;;;;;;;4.75;3.40;;;8.50;42.50;;;;;;5076371;28;20172;-75
2021/03/06 11:36:49;;;;;;;3.72;3.03;;;8.90;41.90;;;;;;5076488;28;20172;-74
2021/03/06 11:39:15;;;;;;;5.23;3.20;;;9.10;42.40;;;;;;5075973;28;20204;-75
2021/03/06 11:41:40;;;;;;;5.13;3.70;;;9.50;38.80;;;;;;5076440;28;20410;-76
2021/03/06 11:44:10;;;;;;;4.57;2.53;;;8.60;38.40;;;;;;5076113;28;20180;-74
2021/03/06 11:46:36;;;;;;;5.00;3.45;;;8.20;39.60;;;;;;5076115;28;20184;-72
2021/03/06 11:49:03;;;;;;;5.30;3.00;;;7.90;42.30;;;;;;5075688;28;20681;-75
2021/03/06 11:51:30;;;;;;;4.35;3.30;;;8.20;41.50;;;;;;5076283;28;20167;-74
2021/03/06 11:53:55;;;;;;;3.65;3.35;;;7.20;41.90;;;;;;5076134;28;20178;-75
2021/03/06 11:56:21;;;;;;;3.93;3.60;;;7.20;42.50;;;;;;5076158;28;20587;-75
2021/03/06 11:58:47;;;;;;;4.57;4.10;;;7.40;44.30;;;;;;5075630;28;20277;-75
2021/03/06 12:01:12;;;;;;;3.57;3.30;;;7.30;42.40;;;;;;5075891;28;20199;-77
2021/03/06 12:03:38;;;;;;;7.00;3.80;;;6.80;41.70;;;;;;5075881;28;20183;-74
2021/03/06 12:06:04;;;;;;;2.93;2.73;;;7.10;45.20;;;;;;5075927;28;20176;-74
2021/03/06 12:08:29;;;;;;;4.33;3.40;;;7.60;44.20;;;;;;5075434;28;20208;-75
2021/03/06 12:10:55;;;;;;;3.00;2.70;;;8.10;47.20;;;;;;5075828;28;20405;-76
2021/03/06 12:13:21;;;;;;;3.47;2.97;;;7.80;42.60;;;;;;5075789;28;20177;-75
2021/03/06 12:15:46;;;;;;;5.63;3.70;;;8.20;41.50;;;;;;5075643;28;20181;-74
2021/03/06 12:18:14;;;;;;;4.83;3.47;;;8.30;40.60;;;;;;5075558;28;20202;-71
2021/03/06 12:20:39;;;;;;;5.07;3.40;;;8.20;40.40;;;;;;5074186;28;20683;-75
2021/03/06 12:23:05;;;;;;;6.30;3.40;;;7.70;41.20;;;;;;5075484;28;20188;-73
2021/03/06 12:25:30;;;;;;;3.23;2.93;;;8.00;42.40;;;;;;5075434;28;20222;-75
2021/03/06 12:27:56;;;;;;;4.40;2.80;;;8.20;39.60;;;;;;5074705;28;20226;-72
2021/03/06 12:30:22;;;;;;;5.07;3.33;;;8.40;39.90;;;;;;5075237;28;20171;-73
2021/03/06 12:32:49;;;;;;;4.47;3.40;;;8.50;39.20;;;;;;5075150;28;20171;-76
2021/03/06 12:35:16;;;;;;;4.03;2.88;;;8.30;38.20;;;;;;5075396;28;20397;-76
2021/03/06 12:37:42;;;;;;;5.47;3.72;;;7.90;38.60;;;;;;5075231;28;20196;-77
2021/03/06 12:40:09;;;;;;;3.42;3.13;;;7.90;38.80;;;;;;5074956;28;20254;-76
2021/03/06 12:42:35;;;;;;;2.97;2.65;;;8.20;40.80;;;;;;5075162;28;20530;-73
2021/03/06 12:45:02;;;;;;;4.35;3.85;;;8.10;38.50;;;;;;5075419;28;20174;-75
2021/03/06 12:47:28;;;;;;;3.67;3.38;;;8.00;38.20;;;;;;5074880;28;20206;-75
2021/03/06 12:49:53;;;;;;;4.33;3.93;;;8.00;39.80;;;;;;5074962;28;20250;-72
2021/03/06 12:52:19;;;;;;;3.40;2.93;;;7.90;38.30;;;;;;5074975;28;20199;-75
2021/03/06 12:54:45;;;;;;;4.20;3.90;;;8.00;39.70;;;;;;5074964;28;20172;-74
2021/03/06 12:57:10;;;;;;;3.53;3.23;;;8.10;38.70;;;;;;5074850;28;20194;-76
2021/03/06 12:59:36;;;;;;;3.60;2.20;;;8.20;38.00;;;;;;5074590;28;20539;-78
2021/03/06 13:02:01;;;;;;;4.00;2.60;;;8.10;36.30;;;;;;5074940;28;20175;-74
2021/03/06 13:04:27;;;;;;;6.77;3.83;;;8.00;37.10;;;;;;5074631;28;20180;-76
2021/03/06 13:06:53;;;;;;;4.30;3.57;;;7.90;36.80;;;;;;5074796;28;20178;-73